sensor_id;sensor_type;location;lat;lon;timestamp;P1;durP1;ratioP1;P2;durP2;ratioP2
7156;SDS011;3620;49.862;8.758;2022-09-12T00:01:23;0.80;;;0.80;;
7156;SDS011;3620;49.862;8.758;2022-09-12T00:03:51;0.80;;;0.80;;
7156;SDS011;3620;49.862;8.758;2022-09-12T00:06:20;0.80;;;0.80;;
7156;SDS011;3620;49.862;8.758;2022-09-12T00:08:48;0.80;;;0.80;;
7156;SDS011;3620;49.862;8.758;2022-09-12T00:11:15;0.60;;;0.60;;
7156;SDS011;3620;49.862;8.758;2022-09-12T00:13:42;0.77;;;0.77;;
7156;SDS011;3620;49.862;8.758;2022-09-12T00:16:13;0.70;;;0.70;;
7156;SDS011;3620;49.862;8.758;2022-09-12T00:18:41;0.80;;;0.80;;
7156;SDS011;3620;49.862;8.758;2022-09-12T00:21:08;0.80;;;0.80;;
7156;SDS011;3620;49.862;8.758;2022-09-12T00:23:36;0.80;;;0.80;;
7156;SDS011;3620;49.862;8.758;2022-09-12T00:26:06;0.80;;;0.80;;
7156;SDS011;3620;49.862;8.758;2022-09-12T00:28:33;0.90;;;0.90;;
7156;SDS011;3620;49.862;8.758;2022-09-12T00:31:03;0.90;;;0.90;;
7156;SDS011;3620;49.862;8.758;2022-09-12T00:33:31;0.70;;;0.70;;
7156;SDS011;3620;49.862;8.758;2022-09-12T00:35:58;0.70;;;0.70;;
7156;SDS011;3620;49.862;8.758;2022-09-12T00:38:25;0.80;;;0.80;;
7156;SDS011;3620;49.862;8.758;2022-09-12T00:40:53;0.80;;;0.80;;
7156;SDS011;3620;49.862;8.758;2022-09-12T00:43:33;0.70;;;0.70;;
7156;SDS011;3620;49.862;8.758;2022-09-12T00:46:04;0.80;;;0.80;;
7156;SDS011;3620;49.862;8.758;2022-09-12T00:48:37;0.80;;;0.80;;
7156;SDS011;3620;49.862;8.758;2022-09-12T00:51:08;0.80;;;0.80;;
7156;SDS011;3620;49.862;8.758;2022-09-12T00:53:36;0.80;;;0.80;;
7156;SDS011;3620;49.862;8.758;2022-09-12T00:56:06;0.80;;;0.80;;
7156;SDS011;3620;49.862;8.758;2022-09-12T00:58:35;0.70;;;0.70;;
7156;SDS011;3620;49.862;8.758;2022-09-12T01:01:05;0.80;;;0.80;;
7156;SDS011;3620;49.862;8.758;2022-09-12T01:03:35;0.80;;;0.80;;
7156;SDS011;3620;49.862;8.758;2022-09-12T01:06:04;0.80;;;0.80;;
7156;SDS011;3620;49.862;8.758;2022-09-12T01:08:34;0.87;;;0.87;;
7156;SDS011;3620;49.862;8.758;2022-09-12T01:11:04;0.80;;;0.80;;
7156;SDS011;3620;49.862;8.758;2022-09-12T01:13:38;0.80;;;0.80;;
7156;SDS011;3620;49.862;8.758;2022-09-12T01:16:05;0.80;;;0.80;;
7156;SDS011;3620;49.862;8.758;2022-09-12T01:18:43;0.80;;;0.80;;
7156;SDS011;3620;49.862;8.758;2022-09-12T01:21:19;0.80;;;0.80;;
7156;SDS011;3620;49.862;8.758;2022-09-12T01:24:10;0.70;;;0.70;;
7156;SDS011;3620;49.862;8.758;2022-09-12T01:30:00;0.80;;;0.80;;
7156;SDS011;3620;49.862;8.758;2022-09-12T01:32:36;0.80;;;0.80;;
7156;SDS011;3620;49.862;8.758;2022-09-12T01:35:14;0.80;;;0.80;;
7156;SDS011;3620;49.862;8.758;2022-09-12T01:37:51;0.87;;;0.87;;
7156;SDS011;3620;49.862;8.758;2022-09-12T01:40:24;0.73;;;0.73;;
7156;SDS011;3620;49.862;8.758;2022-09-12T01:43:01;0.70;;;0.70;;
7156;SDS011;3620;49.862;8.758;2022-09-12T01:45:35;0.80;;;0.80;;
7156;SDS011;3620;49.862;8.758;2022-09-12T01:48:12;0.80;;;0.80;;
7156;SDS011;3620;49.862;8.758;2022-09-12T01:50:45;0.80;;;0.80;;
7156;SDS011;3620;49.862;8.758;2022-09-12T01:53:17;0.80;;;0.80;;
7156;SDS011;3620;49.862;8.758;2022-09-12T01:55:49;0.80;;;0.80;;
7156;SDS011;3620;49.862;8.758;2022-09-12T01:58:20;0.80;;;0.80;;
7156;SDS011;3620;49.862;8.758;2022-09-12T02:00:54;0.73;;;0.73;;
7156;SDS011;3620;49.862;8.758;2022-09-12T02:03:31;0.80;;;0.80;;
7156;SDS011;3620;49.862;8.758;2022-09-12T02:06:05;0.80;;;0.80;;
7156;SDS011;3620;49.862;8.758;2022-09-12T02:08:38;0.80;;;0.80;;
7156;SDS011;3620;49.862;8.758;2022-09-12T02:11:08;0.80;;;0.80;;
7156;SDS011;3620;49.862;8.758;2022-09-12T02:13:40;0.80;;;0.80;;
7156;SDS011;3620;49.862;8.758;2022-09-12T02:16:12;0.80;;;0.80;;
7156;SDS011;3620;49.862;8.758;2022-09-12T02:18:48;0.80;;;0.80;;
7156;SDS011;3620;49.862;8.758;2022-09-12T02:21:18;0.73;;;0.73;;
7156;SDS011;3620;49.862;8.758;2022-09-12T02:23:47;0.90;;;0.90;;
7156;SDS011;3620;49.862;8.758;2022-09-12T02:26:22;0.80;;;0.80;;
7156;SDS011;3620;49.862;8.758;2022-09-12T02:28:55;0.70;;;0.70;;
7156;SDS011;3620;49.862;8.758;2022-09-12T02:31:22;0.80;;;0.80;;
7156;SDS011;3620;49.862;8.758;2022-09-12T02:33:58;0.80;;;0.80;;
7156;SDS011;3620;49.862;8.758;2022-09-12T02:36:36;0.80;;;0.80;;
7156;SDS011;3620;49.862;8.758;2022-09-12T02:39:09;0.70;;;0.70;;
7156;SDS011;3620;49.862;8.758;2022-09-12T02:41:36;0.90;;;0.90;;
7156;SDS011;3620;49.862;8.758;2022-09-12T02:44:03;0.80;;;0.80;;
7156;SDS011;3620;49.862;8.758;2022-09-12T02:46:31;0.90;;;0.90;;
7156;SDS011;3620;49.862;8.758;2022-09-12T02:49:06;0.80;;;0.80;;
7156;SDS011;3620;49.862;8.758;2022-09-12T02:51:32;0.70;;;0.70;;
7156;SDS011;3620;49.862;8.758;2022-09-12T02:53:59;0.80;;;0.80;;
7156;SDS011;3620;49.862;8.758;2022-09-12T02:56:28;0.90;;;0.90;;
7156;SDS011;3620;49.862;8.758;2022-09-12T02:58:57;0.80;;;0.80;;
7156;SDS011;3620;49.862;8.758;2022-09-12T03:01:34;0.90;;;0.90;;
7156;SDS011;3620;49.862;8.758;2022-09-12T03:04:23;0.80;;;0.80;;
7156;SDS011;3620;49.862;8.758;2022-09-12T03:07:05;0.80;;;0.80;;
7156;SDS011;3620;49.862;8.758;2022-09-12T03:09:42;0.90;;;0.90;;
7156;SDS011;3620;49.862;8.758;2022-09-12T03:12:19;0.80;;;0.80;;
7156;SDS011;3620;49.862;8.758;2022-09-12T03:15:07;0.80;;;0.80;;
7156;SDS011;3620;49.862;8.758;2022-09-12T03:17:48;0.80;;;0.80;;
7156;SDS011;3620;49.862;8.758;2022-09-12T03:20:32;0.80;;;0.80;;
7156;SDS011;3620;49.862;8.758;2022-09-12T03:23:11;0.83;;;0.83;;
7156;SDS011;3620;49.862;8.758;2022-09-12T03:25:46;0.80;;;0.80;;
7156;SDS011;3620;49.862;8.758;2022-09-12T03:28:15;0.80;;;0.80;;
7156;SDS011;3620;49.862;8.758;2022-09-12T03:30:45;0.70;;;0.70;;
7156;SDS011;3620;49.862;8.758;2022-09-12T03:33:13;0.87;;;0.87;;
7156;SDS011;3620;49.862;8.758;2022-09-12T03:35:44;0.70;;;0.70;;
7156;SDS011;3620;49.862;8.758;2022-09-12T03:38:11;0.70;;;0.70;;
7156;SDS011;3620;49.862;8.758;2022-09-12T03:40:38;0.83;;;0.83;;
7156;SDS011;3620;49.862;8.758;2022-09-12T03:43:06;0.80;;;0.80;;
7156;SDS011;3620;49.862;8.758;2022-09-12T03:45:33;0.70;;;0.70;;
7156;SDS011;3620;49.862;8.758;2022-09-12T03:48:01;0.77;;;0.77;;
7156;SDS011;3620;49.862;8.758;2022-09-12T03:50:28;0.70;;;0.70;;
7156;SDS011;3620;49.862;8.758;2022-09-12T03:52:56;0.80;;;0.80;;
7156;SDS011;3620;49.862;8.758;2022-09-12T03:55:24;0.80;;;0.80;;
7156;SDS011;3620;49.862;8.758;2022-09-12T03:57:51;0.80;;;0.80;;
7156;SDS011;3620;49.862;8.758;2022-09-12T04:00:18;0.67;;;0.67;;
7156;SDS011;3620;49.862;8.758;2022-09-12T04:02:44;0.80;;;0.80;;
7156;SDS011;3620;49.862;8.758;2022-09-12T04:05:11;0.80;;;0.80;;
7156;SDS011;3620;49.862;8.758;2022-09-12T04:07:38;0.87;;;0.87;;
7156;SDS011;3620;49.862;8.758;2022-09-12T04:10:07;0.80;;;0.80;;
7156;SDS011;3620;49.862;8.758;2022-09-12T04:12:34;0.77;;;0.77;;
7156;SDS011;3620;49.862;8.758;2022-09-12T04:15:01;0.80;;;0.80;;
7156;SDS011;3620;49.862;8.758;2022-09-12T04:17:27;0.80;;;0.80;;
7156;SDS011;3620;49.862;8.758;2022-09-12T04:19:54;0.80;;;0.80;;
7156;SDS011;3620;49.862;8.758;2022-09-12T04:22:20;0.80;;;0.80;;
7156;SDS011;3620;49.862;8.758;2022-09-12T04:24:47;0.90;;;0.90;;
7156;SDS011;3620;49.862;8.758;2022-09-12T04:27:15;0.83;;;0.83;;
7156;SDS011;3620;49.862;8.758;2022-09-12T04:29:42;0.70;;;0.70;;
7156;SDS011;3620;49.862;8.758;2022-09-12T04:32:09;0.80;;;0.80;;
7156;SDS011;3620;49.862;8.758;2022-09-12T04:34:35;0.80;;;0.80;;
7156;SDS011;3620;49.862;8.758;2022-09-12T04:37:03;0.70;;;0.70;;
7156;SDS011;3620;49.862;8.758;2022-09-12T04:39:30;0.80;;;0.80;;
7156;SDS011;3620;49.862;8.758;2022-09-12T04:41:56;0.80;;;0.80;;
7156;SDS011;3620;49.862;8.758;2022-09-12T04:44:24;0.90;;;0.90;;
7156;SDS011;3620;49.862;8.758;2022-09-12T04:46:51;0.70;;;0.70;;
7156;SDS011;3620;49.862;8.758;2022-09-12T04:49:17;0.90;;;0.90;;
7156;SDS011;3620;49.862;8.758;2022-09-12T04:51:44;0.80;;;0.80;;
7156;SDS011;3620;49.862;8.758;2022-09-12T04:54:12;0.63;;;0.63;;
7156;SDS011;3620;49.862;8.758;2022-09-12T04:56:41;0.80;;;0.80;;
7156;SDS011;3620;49.862;8.758;2022-09-12T04:59:09;0.70;;;0.70;;
7156;SDS011;3620;49.862;8.758;2022-09-12T05:01:38;0.87;;;0.87;;
7156;SDS011;3620;49.862;8.758;2022-09-12T05:04:05;0.70;;;0.70;;
7156;SDS011;3620;49.862;8.758;2022-09-12T05:06:32;0.80;;;0.80;;
7156;SDS011;3620;49.862;8.758;2022-09-12T05:09:02;0.90;;;0.90;;
7156;SDS011;3620;49.862;8.758;2022-09-12T05:11:31;0.70;;;0.70;;
7156;SDS011;3620;49.862;8.758;2022-09-12T05:14:00;0.90;;;0.90;;
7156;SDS011;3620;49.862;8.758;2022-09-12T05:16:27;0.80;;;0.80;;
7156;SDS011;3620;49.862;8.758;2022-09-12T05:18:56;0.70;;;0.70;;
7156;SDS011;3620;49.862;8.758;2022-09-12T05:21:24;0.80;;;0.80;;
7156;SDS011;3620;49.862;8.758;2022-09-12T05:23:52;0.80;;;0.80;;
7156;SDS011;3620;49.862;8.758;2022-09-12T05:26:19;0.90;;;0.90;;
7156;SDS011;3620;49.862;8.758;2022-09-12T05:28:47;0.80;;;0.80;;
7156;SDS011;3620;49.862;8.758;2022-09-12T05:31:16;0.83;;;0.83;;
7156;SDS011;3620;49.862;8.758;2022-09-12T05:33:45;0.70;;;0.70;;
7156;SDS011;3620;49.862;8.758;2022-09-12T05:36:14;0.80;;;0.80;;
7156;SDS011;3620;49.862;8.758;2022-09-12T05:38:43;0.90;;;0.90;;
7156;SDS011;3620;49.862;8.758;2022-09-12T05:41:11;0.83;;;0.83;;
7156;SDS011;3620;49.862;8.758;2022-09-12T05:43:39;0.57;;;0.57;;
7156;SDS011;3620;49.862;8.758;2022-09-12T05:46:08;0.63;;;0.63;;
7156;SDS011;3620;49.862;8.758;2022-09-12T05:48:37;0.90;;;0.90;;
7156;SDS011;3620;49.862;8.758;2022-09-12T05:51:05;0.80;;;0.80;;
7156;SDS011;3620;49.862;8.758;2022-09-12T05:53:35;0.90;;;0.90;;
7156;SDS011;3620;49.862;8.758;2022-09-12T05:56:05;0.90;;;0.90;;
7156;SDS011;3620;49.862;8.758;2022-09-12T05:58:34;0.87;;;0.87;;
7156;SDS011;3620;49.862;8.758;2022-09-12T06:01:02;0.80;;;0.80;;
7156;SDS011;3620;49.862;8.758;2022-09-12T06:03:33;0.90;;;0.90;;
7156;SDS011;3620;49.862;8.758;2022-09-12T06:06:01;0.70;;;0.70;;
7156;SDS011;3620;49.862;8.758;2022-09-12T06:08:29;0.83;;;0.83;;
7156;SDS011;3620;49.862;8.758;2022-09-12T06:10:59;0.80;;;0.80;;
7156;SDS011;3620;49.862;8.758;2022-09-12T06:13:26;0.80;;;0.80;;
7156;SDS011;3620;49.862;8.758;2022-09-12T06:15:53;0.90;;;0.90;;
7156;SDS011;3620;49.862;8.758;2022-09-12T06:18:19;0.80;;;0.80;;
7156;SDS011;3620;49.862;8.758;2022-09-12T06:20:46;0.80;;;0.80;;
7156;SDS011;3620;49.862;8.758;2022-09-12T06:23:13;0.80;;;0.80;;
7156;SDS011;3620;49.862;8.758;2022-09-12T06:25:44;0.80;;;0.80;;
7156;SDS011;3620;49.862;8.758;2022-09-12T06:28:13;0.80;;;0.80;;
7156;SDS011;3620;49.862;8.758;2022-09-12T06:30:40;0.87;;;0.87;;
7156;SDS011;3620;49.862;8.758;2022-09-12T06:33:07;0.87;;;0.87;;
7156;SDS011;3620;49.862;8.758;2022-09-12T06:35:34;0.87;;;0.87;;
7156;SDS011;3620;49.862;8.758;2022-09-12T06:38:01;0.90;;;0.90;;
7156;SDS011;3620;49.862;8.758;2022-09-12T06:40:28;0.90;;;0.90;;
7156;SDS011;3620;49.862;8.758;2022-09-12T06:42:55;0.80;;;0.80;;
7156;SDS011;3620;49.862;8.758;2022-09-12T06:45:23;0.80;;;0.80;;
7156;SDS011;3620;49.862;8.758;2022-09-12T06:47:50;0.70;;;0.70;;
7156;SDS011;3620;49.862;8.758;2022-09-12T06:50:17;0.83;;;0.83;;
7156;SDS011;3620;49.862;8.758;2022-09-12T06:52:43;0.80;;;0.80;;
7156;SDS011;3620;49.862;8.758;2022-09-12T06:55:10;0.90;;;0.90;;
7156;SDS011;3620;49.862;8.758;2022-09-12T06:57:37;0.80;;;0.80;;
7156;SDS011;3620;49.862;8.758;2022-09-12T07:00:03;0.87;;;0.87;;
7156;SDS011;3620;49.862;8.758;2022-09-12T07:02:32;0.80;;;0.80;;
7156;SDS011;3620;49.862;8.758;2022-09-12T07:04:59;0.70;;;0.70;;
7156;SDS011;3620;49.862;8.758;2022-09-12T07:07:25;0.80;;;0.80;;
7156;SDS011;3620;49.862;8.758;2022-09-12T07:09:52;0.73;;;0.73;;
7156;SDS011;3620;49.862;8.758;2022-09-12T07:12:21;0.80;;;0.80;;
7156;SDS011;3620;49.862;8.758;2022-09-12T07:14:48;0.80;;;0.80;;
7156;SDS011;3620;49.862;8.758;2022-09-12T07:17:15;0.80;;;0.80;;
7156;SDS011;3620;49.862;8.758;2022-09-12T07:19:43;0.80;;;0.80;;
7156;SDS011;3620;49.862;8.758;2022-09-12T07:22:09;0.80;;;0.80;;
7156;SDS011;3620;49.862;8.758;2022-09-12T07:24:36;0.80;;;0.80;;
7156;SDS011;3620;49.862;8.758;2022-09-12T07:27:04;0.80;;;0.80;;
7156;SDS011;3620;49.862;8.758;2022-09-12T07:29:30;0.80;;;0.80;;
7156;SDS011;3620;49.862;8.758;2022-09-12T07:31:57;0.80;;;0.80;;
7156;SDS011;3620;49.862;8.758;2022-09-12T07:34:25;0.80;;;0.80;;
7156;SDS011;3620;49.862;8.758;2022-09-12T07:36:53;0.80;;;0.80;;
7156;SDS011;3620;49.862;8.758;2022-09-12T07:39:20;0.80;;;0.80;;
7156;SDS011;3620;49.862;8.758;2022-09-12T07:41:47;0.80;;;0.80;;
7156;SDS011;3620;49.862;8.758;2022-09-12T07:44:13;0.70;;;0.70;;
7156;SDS011;3620;49.862;8.758;2022-09-12T07:46:40;0.80;;;0.80;;
7156;SDS011;3620;49.862;8.758;2022-09-12T07:49:07;0.80;;;0.80;;
7156;SDS011;3620;49.862;8.758;2022-09-12T07:51:33;0.80;;;0.80;;
7156;SDS011;3620;49.862;8.758;2022-09-12T07:54:01;0.80;;;0.80;;
7156;SDS011;3620;49.862;8.758;2022-09-12T07:56:33;0.80;;;0.80;;
7156;SDS011;3620;49.862;8.758;2022-09-12T07:59:00;0.80;;;0.80;;
7156;SDS011;3620;49.862;8.758;2022-09-12T08:01:27;0.80;;;0.80;;
7156;SDS011;3620;49.862;8.758;2022-09-12T08:03:55;0.80;;;0.80;;
7156;SDS011;3620;49.862;8.758;2022-09-12T08:06:24;0.73;;;0.73;;
7156;SDS011;3620;49.862;8.758;2022-09-12T08:08:52;0.70;;;0.70;;
7156;SDS011;3620;49.862;8.758;2022-09-12T08:11:22;0.80;;;0.80;;
7156;SDS011;3620;49.862;8.758;2022-09-12T08:13:50;0.80;;;0.80;;
7156;SDS011;3620;49.862;8.758;2022-09-12T08:16:20;0.80;;;0.80;;
7156;SDS011;3620;49.862;8.758;2022-09-12T08:18:47;0.80;;;0.80;;
7156;SDS011;3620;49.862;8.758;2022-09-12T08:21:16;0.80;;;0.80;;
7156;SDS011;3620;49.862;8.758;2022-09-12T08:23:44;0.73;;;0.73;;
7156;SDS011;3620;49.862;8.758;2022-09-12T08:26:11;0.80;;;0.80;;
7156;SDS011;3620;49.862;8.758;2022-09-12T08:28:42;0.80;;;0.80;;
7156;SDS011;3620;49.862;8.758;2022-09-12T08:31:10;0.70;;;0.70;;
7156;SDS011;3620;49.862;8.758;2022-09-12T08:33:38;0.60;;;0.60;;
7156;SDS011;3620;49.862;8.758;2022-09-12T08:36:06;0.60;;;0.60;;
7156;SDS011;3620;49.862;8.758;2022-09-12T08:38:35;0.80;;;0.80;;
7156;SDS011;3620;49.862;8.758;2022-09-12T08:41:04;0.70;;;0.70;;
7156;SDS011;3620;49.862;8.758;2022-09-12T08:43:42;0.70;;;0.70;;
7156;SDS011;3620;49.862;8.758;2022-09-12T08:46:22;0.70;;;0.70;;
7156;SDS011;3620;49.862;8.758;2022-09-12T08:48:53;0.70;;;0.70;;
7156;SDS011;3620;49.862;8.758;2022-09-12T08:51:22;0.60;;;0.60;;
7156;SDS011;3620;49.862;8.758;2022-09-12T08:53:50;0.70;;;0.70;;
7156;SDS011;3620;49.862;8.758;2022-09-12T08:56:20;0.60;;;0.60;;
7156;SDS011;3620;49.862;8.758;2022-09-12T08:58:49;0.70;;;0.70;;
7156;SDS011;3620;49.862;8.758;2022-09-12T09:01:19;0.70;;;0.70;;
7156;SDS011;3620;49.862;8.758;2022-09-12T09:04:03;0.70;;;0.70;;
7156;SDS011;3620;49.862;8.758;2022-09-12T09:06:50;0.70;;;0.70;;
7156;SDS011;3620;49.862;8.758;2022-09-12T09:09:30;0.60;;;0.60;;
7156;SDS011;3620;49.862;8.758;2022-09-12T09:12:10;0.70;;;0.70;;
7156;SDS011;3620;49.862;8.758;2022-09-12T09:14:48;0.70;;;0.70;;
7156;SDS011;3620;49.862;8.758;2022-09-12T09:17:33;0.60;;;0.60;;
7156;SDS011;3620;49.862;8.758;2022-09-12T09:20:09;0.60;;;0.60;;
7156;SDS011;3620;49.862;8.758;2022-09-12T09:22:43;0.60;;;0.60;;
7156;SDS011;3620;49.862;8.758;2022-09-12T09:25:16;0.70;;;0.70;;
7156;SDS011;3620;49.862;8.758;2022-09-12T09:27:45;0.73;;;0.73;;
7156;SDS011;3620;49.862;8.758;2022-09-12T09:30:19;0.70;;;0.70;;
7156;SDS011;3620;49.862;8.758;2022-09-12T09:32:48;0.60;;;0.60;;
7156;SDS011;3620;49.862;8.758;2022-09-12T09:35:18;0.60;;;0.60;;
7156;SDS011;3620;49.862;8.758;2022-09-12T09:38:00;0.80;;;0.80;;
7156;SDS011;3620;49.862;8.758;2022-09-12T09:40:33;0.60;;;0.60;;
7156;SDS011;3620;49.862;8.758;2022-09-12T09:43:11;0.60;;;0.60;;
7156;SDS011;3620;49.862;8.758;2022-09-12T09:45:48;0.70;;;0.70;;
7156;SDS011;3620;49.862;8.758;2022-09-12T09:48:16;0.60;;;0.60;;
7156;SDS011;3620;49.862;8.758;2022-09-12T09:50:45;0.60;;;0.60;;
7156;SDS011;3620;49.862;8.758;2022-09-12T09:53:18;0.60;;;0.60;;
7156;SDS011;3620;49.862;8.758;2022-09-12T09:55:51;0.60;;;0.60;;
7156;SDS011;3620;49.862;8.758;2022-09-12T09:58:27;0.70;;;0.70;;
7156;SDS011;3620;49.862;8.758;2022-09-12T10:00:58;0.60;;;0.60;;
7156;SDS011;3620;49.862;8.758;2022-09-12T10:03:32;0.60;;;0.60;;
7156;SDS011;3620;49.862;8.758;2022-09-12T10:06:05;0.70;;;0.70;;
7156;SDS011;3620;49.862;8.758;2022-09-12T10:08:34;0.60;;;0.60;;
7156;SDS011;3620;49.862;8.758;2022-09-12T10:11:03;0.60;;;0.60;;
7156;SDS011;3620;49.862;8.758;2022-09-12T10:13:36;0.50;;;0.50;;
7156;SDS011;3620;49.862;8.758;2022-09-12T10:16:16;0.53;;;0.53;;
7156;SDS011;3620;49.862;8.758;2022-09-12T10:18:46;0.50;;;0.50;;
7156;SDS011;3620;49.862;8.758;2022-09-12T10:21:22;0.70;;;0.70;;
7156;SDS011;3620;49.862;8.758;2022-09-12T10:23:57;0.60;;;0.60;;
7156;SDS011;3620;49.862;8.758;2022-09-12T10:26:31;0.60;;;0.60;;
7156;SDS011;3620;49.862;8.758;2022-09-12T10:29:02;0.50;;;0.50;;
7156;SDS011;3620;49.862;8.758;2022-09-12T10:31:35;0.60;;;0.60;;
7156;SDS011;3620;49.862;8.758;2022-09-12T10:34:18;0.50;;;0.50;;
7156;SDS011;3620;49.862;8.758;2022-09-12T10:36:48;0.60;;;0.60;;
7156;SDS011;3620;49.862;8.758;2022-09-12T10:39:20;0.60;;;0.60;;
7156;SDS011;3620;49.862;8.758;2022-09-12T10:41:48;0.50;;;0.50;;
7156;SDS011;3620;49.862;8.758;2022-09-12T10:44:15;0.50;;;0.50;;
7156;SDS011;3620;49.862;8.758;2022-09-12T10:46:45;0.50;;;0.50;;
7156;SDS011;3620;49.862;8.758;2022-09-12T10:49:13;0.50;;;0.50;;
7156;SDS011;3620;49.862;8.758;2022-09-12T10:51:53;0.60;;;0.60;;
7156;SDS011;3620;49.862;8.758;2022-09-12T10:54:24;0.50;;;0.50;;
7156;SDS011;3620;49.862;8.758;2022-09-12T10:57:12;0.60;;;0.60;;
7156;SDS011;3620;49.862;8.758;2022-09-12T11:00:03;0.50;;;0.50;;
7156;SDS011;3620;49.862;8.758;2022-09-12T11:02:41;0.50;;;0.50;;
7156;SDS011;3620;49.862;8.758;2022-09-12T11:05:17;0.50;;;0.50;;
7156;SDS011;3620;49.862;8.758;2022-09-12T11:08:02;0.50;;;0.50;;
7156;SDS011;3620;49.862;8.758;2022-09-12T11:10:42;0.50;;;0.50;;
7156;SDS011;3620;49.862;8.758;2022-09-12T11:13:18;0.60;;;0.60;;
7156;SDS011;3620;49.862;8.758;2022-09-12T11:15:55;0.50;;;0.50;;
7156;SDS011;3620;49.862;8.758;2022-09-12T11:18:39;0.50;;;0.50;;
7156;SDS011;3620;49.862;8.758;2022-09-12T11:21:25;0.50;;;0.50;;
7156;SDS011;3620;49.862;8.758;2022-09-12T11:24:09;0.50;;;0.50;;
7156;SDS011;3620;49.862;8.758;2022-09-12T11:26:59;0.50;;;0.50;;
7156;SDS011;3620;49.862;8.758;2022-09-12T11:29:35;0.50;;;0.50;;
7156;SDS011;3620;49.862;8.758;2022-09-12T11:32:14;0.60;;;0.60;;
7156;SDS011;3620;49.862;8.758;2022-09-12T11:35:11;0.50;;;0.50;;
7156;SDS011;3620;49.862;8.758;2022-09-12T11:37:47;0.50;;;0.50;;
7156;SDS011;3620;49.862;8.758;2022-09-12T11:40:28;0.50;;;0.50;;
7156;SDS011;3620;49.862;8.758;2022-09-12T11:43:04;0.53;;;0.53;;
7156;SDS011;3620;49.862;8.758;2022-09-12T11:45:40;0.50;;;0.50;;
7156;SDS011;3620;49.862;8.758;2022-09-12T11:48:10;0.50;;;0.50;;
7156;SDS011;3620;49.862;8.758;2022-09-12T11:50:46;0.50;;;0.50;;
7156;SDS011;3620;49.862;8.758;2022-09-12T11:53:14;0.50;;;0.50;;
7156;SDS011;3620;49.862;8.758;2022-09-12T11:55:50;0.50;;;0.50;;
7156;SDS011;3620;49.862;8.758;2022-09-12T11:58:23;0.50;;;0.50;;
7156;SDS011;3620;49.862;8.758;2022-09-12T12:00:54;0.50;;;0.50;;
7156;SDS011;3620;49.862;8.758;2022-09-12T12:03:25;0.50;;;0.50;;
7156;SDS011;3620;49.862;8.758;2022-09-12T12:06:00;0.43;;;0.43;;
7156;SDS011;3620;49.862;8.758;2022-09-12T12:08:30;0.50;;;0.50;;
7156;SDS011;3620;49.862;8.758;2022-09-12T12:11:03;0.50;;;0.50;;
7156;SDS011;3620;49.862;8.758;2022-09-12T12:13:32;0.50;;;0.50;;
7156;SDS011;3620;49.862;8.758;2022-09-12T12:16:03;0.50;;;0.50;;
7156;SDS011;3620;49.862;8.758;2022-09-12T12:18:34;0.60;;;0.60;;
7156;SDS011;3620;49.862;8.758;2022-09-12T12:21:19;0.50;;;0.50;;
7156;SDS011;3620;49.862;8.758;2022-09-12T12:24:00;0.50;;;0.50;;
7156;SDS011;3620;49.862;8.758;2022-09-12T12:26:40;0.50;;;0.50;;
7156;SDS011;3620;49.862;8.758;2022-09-12T12:29:09;0.50;;;0.50;;
7156;SDS011;3620;49.862;8.758;2022-09-12T12:34:37;0.50;;;0.50;;
7156;SDS011;3620;49.862;8.758;2022-09-12T12:40:08;0.60;;;0.60;;
7156;SDS011;3620;49.862;8.758;2022-09-12T12:45:48;0.50;;;0.50;;
7156;SDS011;3620;49.862;8.758;2022-09-12T12:48:26;0.50;;;0.50;;
7156;SDS011;3620;49.862;8.758;2022-09-12T12:53:57;0.50;;;0.50;;
7156;SDS011;3620;49.862;8.758;2022-09-12T12:56:34;0.40;;;0.40;;
7156;SDS011;3620;49.862;8.758;2022-09-12T12:59:11;0.50;;;0.50;;
7156;SDS011;3620;49.862;8.758;2022-09-12T13:01:43;0.50;;;0.50;;
7156;SDS011;3620;49.862;8.758;2022-09-12T13:04:13;0.50;;;0.50;;
7156;SDS011;3620;49.862;8.758;2022-09-12T13:06:42;0.50;;;0.50;;
7156;SDS011;3620;49.862;8.758;2022-09-12T13:09:17;0.53;;;0.53;;
7156;SDS011;3620;49.862;8.758;2022-09-12T13:11:54;0.50;;;0.50;;
7156;SDS011;3620;49.862;8.758;2022-09-12T13:14:33;0.50;;;0.50;;
7156;SDS011;3620;49.862;8.758;2022-09-12T13:17:03;0.50;;;0.50;;
7156;SDS011;3620;49.862;8.758;2022-09-12T13:19:35;0.50;;;0.50;;
7156;SDS011;3620;49.862;8.758;2022-09-12T13:22:03;0.50;;;0.50;;
7156;SDS011;3620;49.862;8.758;2022-09-12T13:24:32;0.50;;;0.50;;
7156;SDS011;3620;49.862;8.758;2022-09-12T13:27:00;0.47;;;0.47;;
7156;SDS011;3620;49.862;8.758;2022-09-12T13:29:27;0.50;;;0.50;;
7156;SDS011;3620;49.862;8.758;2022-09-12T13:31:54;0.50;;;0.50;;
7156;SDS011;3620;49.862;8.758;2022-09-12T13:34:23;0.40;;;0.40;;
7156;SDS011;3620;49.862;8.758;2022-09-12T13:37:15;0.50;;;0.50;;
7156;SDS011;3620;49.862;8.758;2022-09-12T13:39:56;0.47;;;0.47;;
7156;SDS011;3620;49.862;8.758;2022-09-12T13:42:36;0.50;;;0.50;;
7156;SDS011;3620;49.862;8.758;2022-09-12T13:45:05;0.50;;;0.50;;
7156;SDS011;3620;49.862;8.758;2022-09-12T13:47:38;0.50;;;0.50;;
7156;SDS011;3620;49.862;8.758;2022-09-12T13:50:07;0.40;;;0.40;;
7156;SDS011;3620;49.862;8.758;2022-09-12T13:52:41;0.50;;;0.50;;
7156;SDS011;3620;49.862;8.758;2022-09-12T13:55:15;0.50;;;0.50;;
7156;SDS011;3620;49.862;8.758;2022-09-12T13:57:56;0.50;;;0.50;;
7156;SDS011;3620;49.862;8.758;2022-09-12T14:00:25;0.50;;;0.50;;
7156;SDS011;3620;49.862;8.758;2022-09-12T14:02:52;0.50;;;0.50;;
7156;SDS011;3620;49.862;8.758;2022-09-12T14:05:39;0.40;;;0.40;;
7156;SDS011;3620;49.862;8.758;2022-09-12T14:08:09;0.40;;;0.40;;
7156;SDS011;3620;49.862;8.758;2022-09-12T14:10:39;0.50;;;0.50;;
7156;SDS011;3620;49.862;8.758;2022-09-12T14:13:10;0.50;;;0.50;;
7156;SDS011;3620;49.862;8.758;2022-09-12T14:15:38;0.50;;;0.50;;
7156;SDS011;3620;49.862;8.758;2022-09-12T14:18:18;0.40;;;0.40;;
7156;SDS011;3620;49.862;8.758;2022-09-12T14:20:48;0.50;;;0.50;;
7156;SDS011;3620;49.862;8.758;2022-09-12T14:23:18;0.50;;;0.50;;
7156;SDS011;3620;49.862;8.758;2022-09-12T14:25:50;0.40;;;0.40;;
7156;SDS011;3620;49.862;8.758;2022-09-12T14:28:19;0.40;;;0.40;;
7156;SDS011;3620;49.862;8.758;2022-09-12T14:30:56;0.40;;;0.40;;
7156;SDS011;3620;49.862;8.758;2022-09-12T14:33:25;0.30;;;0.30;;
7156;SDS011;3620;49.862;8.758;2022-09-12T14:36:05;0.43;;;0.43;;
7156;SDS011;3620;49.862;8.758;2022-09-12T14:38:35;0.40;;;0.40;;
7156;SDS011;3620;49.862;8.758;2022-09-12T14:41:07;0.50;;;0.50;;
7156;SDS011;3620;49.862;8.758;2022-09-12T14:43:37;0.43;;;0.43;;
7156;SDS011;3620;49.862;8.758;2022-09-12T14:46:06;0.50;;;0.50;;
7156;SDS011;3620;49.862;8.758;2022-09-12T14:48:41;0.47;;;0.47;;
7156;SDS011;3620;49.862;8.758;2022-09-12T14:51:15;0.40;;;0.40;;
7156;SDS011;3620;49.862;8.758;2022-09-12T14:53:46;0.40;;;0.40;;
7156;SDS011;3620;49.862;8.758;2022-09-12T14:56:13;0.50;;;0.50;;
7156;SDS011;3620;49.862;8.758;2022-09-12T14:58:42;0.50;;;0.50;;
7156;SDS011;3620;49.862;8.758;2022-09-12T15:01:22;0.40;;;0.40;;
7156;SDS011;3620;49.862;8.758;2022-09-12T15:03:51;0.40;;;0.40;;
7156;SDS011;3620;49.862;8.758;2022-09-12T15:06:20;0.40;;;0.40;;
7156;SDS011;3620;49.862;8.758;2022-09-12T15:08:50;0.40;;;0.40;;
7156;SDS011;3620;49.862;8.758;2022-09-12T15:11:18;0.40;;;0.40;;
7156;SDS011;3620;49.862;8.758;2022-09-12T15:13:46;0.32;;;0.32;;
7156;SDS011;3620;49.862;8.758;2022-09-12T15:16:13;0.40;;;0.40;;
7156;SDS011;3620;49.862;8.758;2022-09-12T15:18:40;0.40;;;0.40;;
7156;SDS011;3620;49.862;8.758;2022-09-12T15:21:09;0.40;;;0.40;;
7156;SDS011;3620;49.862;8.758;2022-09-12T15:23:39;0.38;;;0.38;;
7156;SDS011;3620;49.862;8.758;2022-09-12T15:26:09;0.40;;;0.40;;
7156;SDS011;3620;49.862;8.758;2022-09-12T15:28:37;0.40;;;0.40;;
7156;SDS011;3620;49.862;8.758;2022-09-12T15:31:07;0.40;;;0.40;;
7156;SDS011;3620;49.862;8.758;2022-09-12T15:33:38;0.40;;;0.40;;
7156;SDS011;3620;49.862;8.758;2022-09-12T15:36:09;0.40;;;0.40;;
7156;SDS011;3620;49.862;8.758;2022-09-12T15:38:40;0.40;;;0.40;;
7156;SDS011;3620;49.862;8.758;2022-09-12T15:41:09;0.40;;;0.40;;
7156;SDS011;3620;49.862;8.758;2022-09-12T15:43:37;0.40;;;0.40;;
7156;SDS011;3620;49.862;8.758;2022-09-12T15:46:04;0.40;;;0.40;;
7156;SDS011;3620;49.862;8.758;2022-09-12T15:48:32;0.40;;;0.40;;
7156;SDS011;3620;49.862;8.758;2022-09-12T15:50:59;0.30;;;0.30;;
7156;SDS011;3620;49.862;8.758;2022-09-12T15:53:28;0.30;;;0.30;;
7156;SDS011;3620;49.862;8.758;2022-09-12T15:55:55;0.30;;;0.30;;